CheckWX is a tool to help pilots better visualize weather data.  It is not intended as a substitute for an official pre-flight weather briefing.

20:07:58 UTC

VTUK METAR
Khon Kaen Airport
Khon Kaen, Thailand
Current

1 hour ago

VTUK 121900Z 20005KT 9999 FEW010 SCT030 BKN080 25/23 Q1007 NOSIG
Observed
Jul-12 @ 19:00 UTC
Wind
  • 200° at 5 KTS
Visibility
10,000+ meters
Flight Rules
VFR
Cloud Levels
  • Few at 1,000' AGL
  • Scattered at 3,000' AGL
  • Broken at 8,000' AGL
Temperature
25°C / 77°F
Dewpoint
23°C / 73°F
Humidity
89%
Altimeter
29.73" Hg
Pressure
1006.92 hPa
Previous

3 hours ago

VTUK 121700Z 16003KT 120V190 9999 SCT020 BKN080 28/25 Q1008 NOSIG
Observed
Jul-12 @ 17:00 UTC
Wind
  • 160° at 3 KTS
Visibility
10,000+ meters
Flight Rules
VFR
Cloud Levels
  • Scattered at 2,000' AGL
  • Broken at 8,000' AGL
Temperature
28°C / 82°F
Dewpoint
25°C / 77°F
Humidity
84%
Altimeter
29.76" Hg
Pressure
1007.92 hPa
Previous

4 hours ago

VTUK 121600Z VRB02KT 9999 SCT030 SCT100 27/25 Q1008 NOSIG
Observed
Jul-12 @ 16:00 UTC
Wind
  • Variable at 2 KTS
Visibility
10,000+ meters
Flight Rules
VFR
Cloud Levels
  • Scattered at 3,000' AGL
  • Scattered at 10,000' AGL
Temperature
27°C / 81°F
Dewpoint
25°C / 77°F
Humidity
89%
Altimeter
29.76" Hg
Pressure
1007.92 hPa